Time;durP1;ratioP1;P1;durP2;ratioP2;P2;SDS_P1;SDS_P2;PMS_P1;PMS_P2;Temp;Humidity;BMP_temperature;BMP_pressure;BME280_temperature;BME280_humidity;BME280_pressure;Samples;Min_cycle;Max_cycle;Signal;HPM_P1;HPM_P2
2023/05/29 00:01:52;;;;;;;8.48;4.65;;;25.80;99.90;;;;;;1898355;75;21090;-85
2023/05/29 00:04:23;;;;;;;8.48;5.10;;;25.80;99.90;;;;;;1905888;75;21163;-85
2023/05/29 00:06:55;;;;;;;9.98;5.45;;;25.80;99.90;;;;;;1898259;75;21108;-85
2023/05/29 00:09:27;;;;;;;9.23;5.60;;;25.80;99.90;;;;;;1900349;75;21181;-85
2023/05/29 00:12:11;;;;;;;11.08;6.03;;;25.80;99.90;;;;;;1902140;73;21211;-85
2023/05/29 00:14:42;;;;;;;12.88;6.17;;;25.80;99.90;;;;;;1899283;75;21073;-88
2023/05/29 00:17:15;;;;;;;11.48;5.50;;;25.90;99.90;;;;;;1898697;75;21151;-85
2023/05/29 00:19:46;;;;;;;7.92;4.80;;;25.90;99.90;;;;;;1894497;75;21233;-85
2023/05/29 00:22:17;;;;;;;8.18;4.28;;;25.90;99.90;;;;;;1903648;75;21173;-84
2023/05/29 00:24:48;;;;;;;9.75;3.98;;;25.90;99.90;;;;;;1904480;75;21153;-84
2023/05/29 00:27:20;;;;;;;6.37;3.80;;;26.00;99.90;;;;;;1905582;75;21155;-85
2023/05/29 00:29:51;;;;;;;8.50;4.12;;;26.00;99.90;;;;;;1897731;75;21186;-87
2023/05/29 00:32:22;;;;;;;6.05;3.92;;;26.00;99.90;;;;;;1874512;76;21158;-84
2023/05/29 00:34:53;;;;;;;12.03;4.37;;;26.00;99.90;;;;;;1870102;75;21220;-85
2023/05/29 00:37:25;;;;;;;9.95;4.58;;;26.10;99.90;;;;;;1877498;76;21176;-84
2023/05/29 00:39:56;;;;;;;10.48;4.78;;;26.10;99.90;;;;;;1873880;76;21428;-84
2023/05/29 00:42:27;;;;;;;7.08;4.47;;;26.20;99.90;;;;;;1865937;74;21107;-85
2023/05/29 00:44:59;;;;;;;6.45;3.85;;;26.20;99.90;;;;;;1872557;76;21130;-85
2023/05/29 00:47:30;;;;;;;7.62;3.30;;;26.20;99.90;;;;;;1817920;77;21680;-85
2023/05/29 00:50:03;;;;;;;7.92;4.62;;;26.30;99.90;;;;;;1863405;76;21166;-84
2023/05/29 00:52:34;;;;;;;8.25;3.47;;;26.40;99.90;;;;;;1869020;76;21677;-84
2023/05/29 00:55:07;;;;;;;10.18;3.75;;;26.40;99.90;;;;;;1860004;76;21196;-80
2023/05/29 00:57:39;;;;;;;6.20;2.60;;;26.50;99.90;;;;;;1870118;76;21425;-77
2023/05/29 01:00:58;;;;;;;6.08;3.20;;;26.60;99.90;;;;;;1883655;76;21253;-80
2023/05/29 01:03:04;;;;;;;5.87;2.60;;;26.70;99.90;;;;;;1846386;75;21232;-78
2023/05/29 01:05:36;;;;;;;9.35;5.00;;;26.70;99.90;;;;;;1865437;75;21614;-77
2023/05/29 01:08:08;;;;;;;7.97;3.75;;;26.70;99.90;;;;;;1870696;76;21143;-79
2023/05/29 01:10:43;;;;;;;26.37;4.50;;;26.80;99.90;;;;;;1881477;76;21590;-79
2023/05/29 01:13:22;;;;;;;8.88;2.80;;;26.80;99.90;;;;;;1887884;76;21249;-80
2023/05/29 01:15:58;;;;;;;7.75;2.70;;;26.90;99.90;;;;;;1881585;74;21115;-76
2023/05/29 01:18:41;;;;;;;6.03;2.70;;;26.90;99.90;;;;;;1877446;74;21588;-77
2023/05/29 01:21:42;;;;;;;5.25;2.30;;;27.00;99.90;;;;;;1850722;76;21939;-74
2023/05/29 01:24:16;;;;;;;5.75;2.65;;;27.00;99.90;;;;;;1866169;76;21083;-78
2023/05/29 01:26:56;;;;;;;4.20;2.02;;;27.00;99.90;;;;;;1856187;76;21154;-77
2023/05/29 01:29:33;;;;;;;4.17;2.10;;;27.00;99.90;;;;;;1863888;76;21095;-79
2023/05/29 01:32:05;;;;;;;4.92;2.08;;;26.90;99.90;;;;;;1896803;75;21284;-77
2023/05/29 01:34:36;;;;;;;4.05;2.20;;;26.90;99.90;;;;;;1916757;75;21131;-79
2023/05/29 01:37:07;;;;;;;4.37;1.95;;;26.80;99.90;;;;;;1904117;75;21202;-81
2023/05/29 01:39:39;;;;;;;4.37;2.33;;;26.80;99.90;;;;;;1905469;75;21592;-79
2023/05/29 01:42:11;;;;;;;4.78;2.10;;;26.80;99.90;;;;;;1918341;73;21109;-80
2023/05/29 01:44:43;;;;;;;3.35;2.08;;;26.90;99.90;;;;;;1905780;75;21151;-80
2023/05/29 01:47:15;;;;;;;3.77;2.40;;;26.90;99.90;;;;;;1905177;74;21153;-83
2023/05/29 01:49:49;;;;;;;5.97;2.22;;;26.90;99.90;;;;;;1897261;74;21193;-79
2023/05/29 01:52:20;;;;;;;4.78;2.42;;;27.00;99.90;;;;;;1898921;73;21127;-79
2023/05/29 01:54:52;;;;;;;6.10;2.33;;;27.00;99.90;;;;;;1904609;75;21254;-82
2023/05/29 01:57:23;;;;;;;6.50;2.47;;;27.00;99.90;;;;;;1899222;75;21209;-81
2023/05/29 01:59:55;;;;;;;4.62;2.52;;;27.10;99.90;;;;;;1902161;75;21639;-81
2023/05/29 02:02:27;;;;;;;4.37;2.30;;;27.10;99.90;;;;;;1902039;75;21185;-81
2023/05/29 02:04:59;;;;;;;5.92;2.47;;;27.20;99.90;;;;;;1896965;75;21182;-81
2023/05/29 02:07:30;;;;;;;6.47;2.50;;;27.20;99.90;;;;;;1900110;73;21606;-82
2023/05/29 02:10:01;;;;;;;5.65;3.15;;;27.20;99.90;;;;;;1902117;75;21139;-82
2023/05/29 02:12:33;;;;;;;5.33;2.15;;;27.30;99.90;;;;;;1899346;73;21100;-79
2023/05/29 02:15:04;;;;;;;4.45;2.47;;;27.30;99.90;;;;;;1905104;75;21556;-78
2023/05/29 02:17:42;;;;;;;4.60;2.30;;;27.30;99.90;;;;;;1900368;73;21111;-80
2023/05/29 02:20:10;;;;;;;6.37;2.87;;;27.30;99.90;;;;;;1896072;75;21153;-82
2023/05/29 02:22:41;;;;;;;5.15;2.60;;;27.30;99.90;;;;;;1905171;73;21186;-80
2023/05/29 02:25:13;;;;;;;6.08;2.60;;;27.30;99.90;;;;;;1901485;74;21147;-83
2023/05/29 02:27:45;;;;;;;5.28;2.70;;;27.30;99.90;;;;;;1894616;73;21233;-80
2023/05/29 02:30:16;;;;;;;6.33;3.10;;;27.40;99.90;;;;;;1893608;75;21147;-79
2023/05/29 02:32:48;;;;;;;5.55;3.25;;;27.40;99.90;;;;;;1884369;75;21138;-82
2023/05/29 02:35:22;;;;;;;6.40;3.50;;;27.50;99.90;;;;;;1879361;76;21200;-79
2023/05/29 02:37:52;;;;;;;5.08;2.87;;;27.60;99.90;;;;;;1878172;76;21842;-78
2023/05/29 02:40:23;;;;;;;8.73;3.37;;;27.60;99.90;;;;;;1876911;76;21170;-80
2023/05/29 02:42:57;;;;;;;8.10;3.58;;;27.70;99.90;;;;;;1871007;76;21247;-79
2023/05/29 02:45:28;;;;;;;12.93;4.25;;;27.70;99.90;;;;;;1875918;76;21589;-77
2023/05/29 02:47:59;;;;;;;6.87;4.00;;;27.80;99.90;;;;;;1877816;76;21114;-75
2023/05/29 02:50:31;;;;;;;8.40;4.20;;;27.80;99.90;;;;;;1858829;76;21224;-75
2023/05/29 02:53:02;;;;;;;9.30;4.45;;;27.90;99.90;;;;;;1868577;76;21208;-76
2023/05/29 02:55:35;;;;;;;7.33;4.10;;;28.00;99.90;;;;;;1865194;76;21154;-75
2023/05/29 02:58:06;;;;;;;9.60;4.35;;;28.00;99.90;;;;;;1876781;76;21652;-78
2023/05/29 03:00:37;;;;;;;9.98;4.37;;;28.10;99.90;;;;;;1876642;74;21590;-77
2023/05/29 03:03:08;;;;;;;7.45;4.65;;;28.20;99.90;;;;;;1861264;75;21125;-76
2023/05/29 03:05:39;;;;;;;8.08;4.60;;;28.30;99.90;;;;;;1869691;74;21240;-77
2023/05/29 03:08:11;;;;;;;7.87;4.37;;;28.40;99.90;;;;;;1880824;74;21130;-77
2023/05/29 03:10:44;;;;;;;6.55;5.05;;;28.40;99.90;;;;;;1878787;76;21151;-77
2023/05/29 03:13:19;;;;;;;9.93;5.00;;;28.40;99.90;;;;;;1863749;76;21173;-76
2023/05/29 03:16:00;;;;;;;9.60;4.90;;;28.40;99.90;;;;;;1874693;74;21143;-76
2023/05/29 03:18:32;;;;;;;9.03;5.47;;;28.40;99.90;;;;;;1870118;75;21270;-77
2023/05/29 03:21:03;;;;;;;12.00;5.65;;;28.40;99.90;;;;;;1873223;74;21162;-74
2023/05/29 03:23:35;;;;;;;9.05;5.92;;;28.50;99.90;;;;;;1866829;76;21169;-76
2023/05/29 03:26:06;;;;;;;10.55;5.85;;;28.60;99.90;;;;;;1873739;74;21162;-76
2023/05/29 03:28:37;;;;;;;9.55;5.47;;;28.80;99.90;;;;;;1874379;74;21213;-76
2023/05/29 03:31:10;;;;;;;8.30;5.67;;;28.90;99.90;;;;;;1876910;74;21412;-76
2023/05/29 03:33:41;;;;;;;10.85;5.45;;;29.10;99.90;;;;;;1871802;75;21131;-75
2023/05/29 03:36:18;;;;;;;8.03;5.60;;;29.30;99.90;;;;;;1870261;74;21114;-79
2023/05/29 03:38:46;;;;;;;7.80;5.55;;;29.40;99.90;;;;;;1870512;74;21122;-78
2023/05/29 03:41:20;;;;;;;9.25;5.83;;;29.40;99.90;;;;;;1876242;74;21158;-81
2023/05/29 03:43:51;;;;;;;7.60;5.40;;;29.50;99.90;;;;;;1882253;74;21147;-75
2023/05/29 03:46:27;;;;;;;5.90;4.45;;;29.50;99.90;;;;;;1873760;74;21107;-75
2023/05/29 03:48:59;;;;;;;6.87;5.97;;;29.50;99.90;;;;;;1870406;74;21052;-79
2023/05/29 03:51:30;;;;;;;9.95;6.20;;;29.50;99.90;;;;;;1887467;74;21217;-78
2023/05/29 03:54:03;;;;;;;6.55;5.22;;;29.60;99.90;;;;;;1870857;74;21165;-77
2023/05/29 03:56:37;;;;;;;9.95;6.15;;;29.60;99.90;;;;;;1880129;74;21158;-76
2023/05/29 03:59:09;;;;;;;8.53;5.55;;;29.60;99.90;;;;;;1866156;76;21689;-77
2023/05/29 04:01:40;;;;;;;7.80;5.03;;;29.60;99.90;;;;;;1872820;74;21146;-77
2023/05/29 04:04:14;;;;;;;9.20;5.50;;;29.70;99.90;;;;;;1870883;76;21155;-76
2023/05/29 04:06:46;;;;;;;6.10;4.78;;;29.90;99.90;;;;;;1871460;75;21610;-75
2023/05/29 04:09:20;;;;;;;8.65;5.97;;;30.10;99.90;;;;;;1870939;74;21137;-77
2023/05/29 04:11:55;;;;;;;9.23;5.00;;;30.20;99.90;;;;;;1882894;74;21149;-78
2023/05/29 04:14:26;;;;;;;11.15;5.28;;;30.40;99.90;;;;;;1880848;74;21306;-76
2023/05/29 04:16:58;;;;;;;6.58;5.20;;;30.50;99.90;;;;;;1891284;74;21154;-77
2023/05/29 04:19:29;;;;;;;7.87;5.53;;;30.50;99.90;;;;;;1877454;74;21739;-76
2023/05/29 04:22:00;;;;;;;11.93;5.83;;;30.40;99.90;;;;;;1879075;76;21753;-76
2023/05/29 04:24:31;;;;;;;6.10;5.22;;;30.30;99.90;;;;;;1867239;74;21111;-82
2023/05/29 04:27:23;;;;;;;8.03;5.47;;;30.30;99.90;;;;;;1866245;75;22033;-83
2023/05/29 04:29:55;;;;;;;9.28;5.95;;;30.20;99.90;;;;;;1882935;74;21106;-83
2023/05/29 04:32:32;;;;;;;9.45;7.30;;;30.30;99.90;;;;;;1847512;76;21114;-83
2023/05/29 04:35:06;;;;;;;9.80;7.05;;;30.20;99.90;;;;;;1863507;76;21612;-82
2023/05/29 04:37:40;;;;;;;10.08;5.90;;;30.20;99.90;;;;;;1853852;76;21133;-82
2023/05/29 04:40:17;;;;;;;10.10;6.40;;;30.30;99.90;;;;;;1878021;76;21157;-81
2023/05/29 04:42:49;;;;;;;10.20;6.53;;;30.40;99.90;;;;;;1842717;76;21733;-81
2023/05/29 04:45:22;;;;;;;8.53;5.87;;;30.60;99.90;;;;;;1846738;77;21136;-82
2023/05/29 04:47:54;;;;;;;7.70;5.75;;;30.70;99.90;;;;;;1876160;76;21121;-81
2023/05/29 04:50:29;;;;;;;6.75;5.60;;;30.70;99.90;;;;;;1875676;76;21527;-84
2023/05/29 04:53:04;;;;;;;9.15;5.65;;;30.70;99.90;;;;;;1870944;76;21167;-82
2023/05/29 04:55:49;;;;;;;12.15;5.65;;;30.60;99.90;;;;;;1879097;76;21138;-83
2023/05/29 05:01:38;;;;;;;6.83;5.28;;;30.80;99.90;;;;;;1852808;77;21074;-81
2023/05/29 05:04:14;;;;;;;9.48;5.65;;;30.90;99.90;;;;;;1853331;76;21328;-80
2023/05/29 05:06:47;;;;;;;10.05;6.08;;;30.90;99.90;;;;;;1854251;76;21113;-82
2023/05/29 05:09:21;;;;;;;8.18;5.58;;;30.90;99.90;;;;;;1871514;76;21114;-82
2023/05/29 05:11:52;;;;;;;7.17;5.10;;;30.90;99.90;;;;;;1824294;77;21124;-82
2023/05/29 05:14:24;;;;;;;5.42;4.65;;;30.90;99.90;;;;;;1870018;76;21126;-82
2023/05/29 05:16:56;;;;;;;6.58;4.33;;;30.90;99.90;;;;;;1846371;76;21217;-83
2023/05/29 05:19:28;;;;;;;9.20;6.35;;;30.80;99.90;;;;;;1855637;76;21171;-84
2023/05/29 05:21:59;;;;;;;8.78;5.87;;;30.70;99.90;;;;;;1854533;76;21228;-83
2023/05/29 05:24:32;;;;;;;7.00;4.85;;;30.60;99.90;;;;;;1861398;76;21129;-82
2023/05/29 05:27:12;;;;;;;8.75;5.20;;;30.60;99.90;;;;;;1882810;76;21146;-82
2023/05/29 05:29:43;;;;;;;5.92;4.58;;;30.60;99.90;;;;;;1860872;76;21104;-76
2023/05/29 05:32:15;;;;;;;7.15;5.03;;;30.70;99.90;;;;;;1862662;76;21127;-78
2023/05/29 05:34:46;;;;;;;9.00;4.97;;;30.70;99.90;;;;;;1907282;73;21212;-75
2023/05/29 05:37:18;;;;;;;8.00;4.37;;;30.90;99.90;;;;;;1908526;74;21734;-75
2023/05/29 05:39:53;;;;;;;18.70;16.65;;;31.20;99.90;;;;;;1910651;73;21107;-74
2023/05/29 05:42:24;;;;;;;13.98;12.45;;;31.30;99.90;;;;;;1904743;74;21184;-74
2023/05/29 05:44:55;;;;;;;13.88;12.43;;;31.50;99.90;;;;;;1903886;74;21115;-75
2023/05/29 05:47:27;;;;;;;8.15;5.67;;;31.60;99.90;;;;;;1918048;74;22160;-74
2023/05/29 05:49:59;;;;;;;6.05;4.60;;;31.80;99.90;;;;;;1916858;74;21170;-75
2023/05/29 05:52:32;;;;;;;6.47;4.30;;;31.80;99.90;;;;;;1908716;74;21111;-75
2023/05/29 05:55:03;;;;;;;5.22;4.20;;;31.80;99.90;;;;;;1915293;74;21115;-77
2023/05/29 05:57:35;;;;;;;7.20;4.45;;;31.80;99.90;;;;;;1910047;74;21208;-74
2023/05/29 06:00:25;;;;;;;6.20;4.37;;;31.80;99.90;;;;;;1909419;74;21139;-78
2023/05/29 06:03:03;;;;;;;8.03;4.53;;;31.80;99.90;;;;;;1910852;74;21111;-75
2023/05/29 06:05:36;;;;;;;6.25;4.10;;;31.90;99.90;;;;;;1926523;74;21084;-75
2023/05/29 06:08:08;;;;;;;8.28;4.17;;;32.00;99.90;;;;;;1911593;73;21107;-77
2023/05/29 06:10:43;;;;;;;8.63;3.98;;;32.10;99.90;;;;;;1910813;73;21216;-77
2023/05/29 06:13:16;;;;;;;5.45;3.90;;;32.10;99.90;;;;;;1844587;76;21164;-78
2023/05/29 06:15:48;;;;;;;6.90;4.78;;;32.10;99.90;;;;;;1909550;74;21800;-74
2023/05/29 06:18:19;;;;;;;6.55;4.37;;;32.10;99.90;;;;;;1901724;73;21091;-76
2023/05/29 06:20:52;;;;;;;7.12;5.03;;;32.00;99.90;;;;;;1915343;74;21135;-76
2023/05/29 06:23:30;;;;;;;8.53;5.28;;;32.10;99.90;;;;;;1925614;73;21593;-76
2023/05/29 06:26:12;;;;;;;10.25;4.62;;;32.00;99.90;;;;;;1902571;74;21688;-76
2023/05/29 06:28:50;;;;;;;10.78;4.78;;;32.00;99.90;;;;;;1911710;73;21710;-77
2023/05/29 06:31:30;;;;;;;9.05;5.75;;;32.00;99.90;;;;;;1880505;73;21125;-76
2023/05/29 06:34:02;;;;;;;11.45;5.90;;;31.90;99.90;;;;;;1887911;74;21139;-76
2023/05/29 06:36:35;;;;;;;21.70;6.65;;;31.70;99.90;;;;;;1861629;74;21080;-75
2023/05/29 06:39:20;;;;;;;;;;;;;;;;;;;;;
2023/05/29 06:42:04;;;;;;;9.13;5.25;;;31.40;99.90;;;;;;1811086;77;21162;-76
2023/05/29 06:44:47;;;;;;;9.33;5.47;;;31.30;99.90;;;;;;1779166;75;21165;-75
2023/05/29 06:47:16;;;;;;;8.00;4.90;;;31.20;99.90;;;;;;1875710;74;21139;-77
2023/05/29 06:49:50;;;;;;;9.98;5.33;;;31.10;99.90;;;;;;1853776;74;21138;-77
2023/05/29 06:52:21;;;;;;;7.55;4.97;;;31.00;99.90;;;;;;1854449;74;21198;-75
2023/05/29 06:54:58;;;;;;;6.30;4.78;;;30.90;99.90;;;;;;1870142;76;21064;-79
2023/05/29 06:57:33;;;;;;;8.53;4.87;;;30.90;99.90;;;;;;1809704;78;21161;-76
2023/05/29 07:00:12;;;;;;;12.50;7.35;;;30.80;99.90;;;;;;1850392;77;21080;-77
2023/05/29 07:02:43;;;;;;;35.63;16.25;;;30.80;99.90;;;;;;1845184;77;21237;-77
2023/05/29 07:05:18;;;;;;;19.85;9.98;;;30.70;99.90;;;;;;1863284;76;21204;-78
2023/05/29 07:07:49;;;;;;;11.50;5.70;;;30.90;99.90;;;;;;1868789;76;21240;-78
2023/05/29 07:10:21;;;;;;;7.03;4.42;;;30.90;99.90;;;;;;1858071;76;21194;-77
2023/05/29 07:12:53;;;;;;;6.90;4.92;;;30.90;99.90;;;;;;1865783;74;21107;-78
2023/05/29 07:15:27;;;;;;;8.33;4.50;;;30.90;99.90;;;;;;1856741;76;21570;-77
2023/05/29 07:17:59;;;;;;;6.58;4.80;;;31.00;99.90;;;;;;1817405;77;21207;-78
2023/05/29 07:20:36;;;;;;;6.00;4.50;;;31.20;99.90;;;;;;1854291;77;21148;-79
2023/05/29 07:23:09;;;;;;;6.75;4.45;;;31.20;99.90;;;;;;1872867;75;21245;-78
2023/05/29 07:25:43;;;;;;;7.72;4.25;;;31.40;99.90;;;;;;1864864;76;21539;-78
2023/05/29 07:28:18;;;;;;;8.05;5.28;;;31.40;99.90;;;;;;1855261;76;21552;-80
2023/05/29 07:30:52;;;;;;;10.65;5.50;;;31.50;99.90;;;;;;1858504;75;21103;-76
2023/05/29 07:33:27;;;;;;;15.05;7.45;;;31.50;99.90;;;;;;1858991;76;21197;-75
2023/05/29 07:36:25;;;;;;;11.30;5.85;;;31.40;99.90;;;;;;1892745;75;21625;-77
2023/05/29 07:38:47;;;;;;;16.90;6.17;;;31.20;99.90;;;;;;1892909;75;21084;-77
2023/05/29 07:41:28;;;;;;;12.68;6.47;;;31.00;99.90;;;;;;1904588;75;21804;-78
2023/05/29 07:43:57;;;;;;;10.50;5.67;;;30.70;99.90;;;;;;1900669;75;21655;-79
2023/05/29 07:46:32;;;;;;;10.40;4.90;;;30.30;99.90;;;;;;1897752;75;21147;-78
2023/05/29 07:49:03;;;;;;;9.00;4.50;;;29.80;99.90;;;;;;1898281;75;21087;-76
2023/05/29 07:51:35;;;;;;;8.50;4.90;;;29.40;99.90;;;;;;1899554;75;21167;-76
2023/05/29 07:54:07;;;;;;;8.35;5.33;;;29.10;99.90;;;;;;1896411;73;21151;-77
2023/05/29 07:56:40;;;;;;;9.33;4.60;;;28.90;99.90;;;;;;1900059;75;21221;-76
2023/05/29 07:59:12;;;;;;;12.13;5.42;;;28.60;99.90;;;;;;1896744;73;21147;-77
2023/05/29 08:01:44;;;;;;;10.10;4.80;;;28.50;99.90;;;;;;1912933;75;21162;-76
2023/05/29 08:04:16;;;;;;;7.12;3.60;;;28.40;99.90;;;;;;1904421;75;21069;-75
2023/05/29 08:06:47;;;;;;;8.38;4.15;;;28.30;99.90;;;;;;1906634;75;21632;-75
2023/05/29 08:09:19;;;;;;;10.20;4.80;;;28.10;99.90;;;;;;1905741;75;21496;-76
2023/05/29 08:11:50;;;;;;;12.63;4.65;;;28.10;99.90;;;;;;1907261;75;21088;-76
2023/05/29 08:14:22;;;;;;;10.65;4.60;;;28.00;99.90;;;;;;1901512;73;21123;-74
2023/05/29 08:16:53;;;;;;;9.38;3.90;;;28.00;99.90;;;;;;1898733;75;21147;-76
2023/05/29 08:19:25;;;;;;;12.43;4.78;;;27.90;99.90;;;;;;1896451;75;21211;-76
2023/05/29 08:21:57;;;;;;;6.78;4.33;;;27.90;99.90;;;;;;1895466;73;21840;-75
2023/05/29 08:24:28;;;;;;;5.70;3.52;;;27.90;99.90;;;;;;1896355;73;21606;-76
2023/05/29 08:27:08;;;;;;;9.98;4.45;;;28.00;99.90;;;;;;1893041;73;21104;-75
2023/05/29 08:29:36;;;;;;;9.20;4.45;;;28.00;99.90;;;;;;1893980;75;21657;-75
2023/05/29 08:32:08;;;;;;;6.10;4.42;;;28.00;99.90;;;;;;1897077;75;21162;-77
2023/05/29 08:34:39;;;;;;;9.18;5.12;;;28.00;99.90;;;;;;1902036;75;21562;-75
2023/05/29 08:37:11;;;;;;;16.17;6.72;;;28.00;99.90;;;;;;1897802;75;21212;-76
2023/05/29 08:39:42;;;;;;;21.20;6.67;;;28.00;99.90;;;;;;1855302;76;21142;-76
2023/05/29 08:42:20;;;;;;;6.60;4.40;;;28.10;99.90;;;;;;1887186;75;21120;-76
2023/05/29 08:44:54;;;;;;;7.60;4.20;;;28.10;99.90;;;;;;1899852;75;21159;-76
2023/05/29 08:47:27;;;;;;;6.85;5.12;;;28.10;99.90;;;;;;1901760;73;21151;-76
2023/05/29 08:50:01;;;;;;;7.33;5.20;;;28.10;99.90;;;;;;1848664;76;21208;-77
2023/05/29 08:52:38;;;;;;;7.50;5.72;;;28.20;99.90;;;;;;1888845;75;21198;-76
2023/05/29 08:55:08;;;;;;;;;;;28.20;99.90;;;;;;1895222;75;21143;-77
2023/05/29 08:57:42;;;;;;;7.58;4.83;;;28.30;99.90;;;;;;1896938;75;20215;-77
2023/05/29 09:00:15;;;;;;;9.15;5.08;;;28.30;99.90;;;;;;1904905;75;21178;-78
2023/05/29 09:02:46;;;;;;;6.17;4.72;;;28.40;99.90;;;;;;1906088;73;21148;-75
2023/05/29 09:05:18;;;;;;;16.97;7.70;;;28.40;99.90;;;;;;1904975;75;21375;-76
2023/05/29 09:07:50;;;;;;;12.95;6.33;;;28.50;99.90;;;;;;1904078;75;21607;-77
2023/05/29 09:10:22;;;;;;;12.45;6.40;;;28.50;99.90;;;;;;1900451;75;21619;-77
2023/05/29 09:12:56;;;;;;;11.70;5.35;;;28.50;99.90;;;;;;1903388;75;21151;-77
2023/05/29 09:15:27;;;;;;;14.38;5.92;;;28.60;99.90;;;;;;1901712;74;21116;-79
2023/05/29 09:18:10;;;;;;;9.48;4.58;;;28.70;99.90;;;;;;1900456;75;21068;-80
2023/05/29 09:20:37;;;;;;;7.37;4.35;;;28.70;99.90;;;;;;1890939;75;21551;-78
2023/05/29 09:23:25;;;;;;;4.92;3.52;;;28.80;99.90;;;;;;1908531;73;21611;-78
2023/05/29 09:25:56;;;;;;;6.53;3.90;;;28.80;99.90;;;;;;1895065;75;21119;-77
2023/05/29 09:31:22;;;;;;;6.20;3.80;;;28.80;99.90;;;;;;1854535;75;21159;-77
2023/05/29 09:34:03;;;;;;;8.55;4.15;;;28.80;99.90;;;;;;1900813;75;21658;-77
2023/05/29 09:36:36;;;;;;;7.58;3.72;;;28.80;99.90;;;;;;1897615;75;22452;-76
2023/05/29 09:39:09;;;;;;;13.75;4.85;;;28.80;99.90;;;;;;1891275;75;21127;-77
2023/05/29 09:41:45;;;;;;;10.55;4.95;;;28.90;99.90;;;;;;1891844;75;21071;-79
2023/05/29 09:44:17;;;;;;;5.78;4.05;;;28.90;99.90;;;;;;1903721;73;21170;-78
2023/05/29 09:46:50;;;;;;;9.15;4.17;;;28.90;99.90;;;;;;1894599;73;21115;-76
2023/05/29 09:49:23;;;;;;;8.65;4.05;;;28.90;99.90;;;;;;1904333;73;21163;-74
2023/05/29 09:51:59;;;;;;;7.28;4.10;;;28.90;99.90;;;;;;1834634;76;21876;-74
2023/05/29 09:54:30;;;;;;;6.45;4.40;;;28.90;99.90;;;;;;1883517;75;21182;-75
2023/05/29 09:57:05;;;;;;;7.15;4.53;;;28.90;99.90;;;;;;1893620;75;21248;-74
2023/05/29 09:59:37;;;;;;;13.78;5.70;;;28.80;99.90;;;;;;1893866;73;21119;-77
2023/05/29 10:02:11;;;;;;;16.52;6.92;;;28.90;99.90;;;;;;1896383;73;21140;-79
2023/05/29 10:04:43;;;;;;;13.18;6.85;;;28.90;99.90;;;;;;1893681;73;21214;-78
2023/05/29 10:07:25;;;;;;;14.83;6.22;;;28.90;99.90;;;;;;1913081;75;21068;-79
2023/05/29 10:10:01;;;;;;;29.70;16.20;;;28.90;99.90;;;;;;1840696;76;21130;-80
2023/05/29 10:12:38;;;;;;;77.12;52.85;;;28.90;99.90;;;;;;1891543;74;21132;-76
2023/05/29 10:15:13;;;;;;;8.65;7.17;;;28.90;99.90;;;;;;1855579;76;21138;-77
2023/05/29 10:18:09;;;;;;;9.58;6.75;;;28.90;99.90;;;;;;1897148;75;21069;-75
2023/05/29 10:20:40;;;;;;;10.40;6.75;;;28.90;99.90;;;;;;1892939;74;21114;-76
2023/05/29 10:23:13;;;;;;;8.05;4.83;;;29.00;99.90;;;;;;1902392;75;21175;-75
2023/05/29 10:25:49;;;;;;;9.15;4.50;;;28.90;99.90;;;;;;1902219;75;21120;-80
2023/05/29 10:28:24;;;;;;;11.08;5.40;;;28.90;99.90;;;;;;1898926;75;21159;-79
2023/05/29 10:31:13;;;;;;;13.38;8.28;;;28.90;99.90;;;;;;1902315;75;21149;-80
2023/05/29 10:34:02;;;;;;;21.60;14.80;;;28.90;99.90;;;;;;1903478;75;21175;-77
2023/05/29 10:36:45;;;;;;;90.07;82.35;;;29.00;99.90;;;;;;1852874;74;21388;-78
2023/05/29 10:39:17;;;;;;;116.75;106.37;;;29.00;99.90;;;;;;1874608;74;21102;-78
2023/05/29 10:41:51;;;;;;;56.90;51.88;;;28.90;99.90;;;;;;1885309;74;21147;-82
2023/05/29 10:44:37;;;;;;;203.88;186.40;;;29.00;99.90;;;;;;1886383;74;21116;-78
2023/05/29 10:47:12;;;;;;;96.25;87.00;;;29.00;99.90;;;;;;1869973;75;21130;-78
2023/05/29 10:49:46;;;;;;;347.12;316.60;;;28.90;99.90;;;;;;1875312;74;21189;-79
2023/05/29 10:52:20;;;;;;;237.57;216.08;;;28.90;99.90;;;;;;1875279;76;21119;-77
2023/05/29 10:54:58;;;;;;;263.00;240.55;;;29.00;99.90;;;;;;1866513;74;21115;-77
2023/05/29 10:57:35;;;;;;;38.08;34.45;;;29.00;99.90;;;;;;1870657;76;21587;-77
2023/05/29 11:00:12;;;;;;;51.70;44.90;;;29.00;99.90;;;;;;1872214;74;21658;-79
2023/05/29 11:02:43;;;;;;;157.37;141.53;;;29.00;99.90;;;;;;1875238;74;21173;-77
2023/05/29 11:05:22;;;;;;;32.70;29.02;;;29.00;99.90;;;;;;1870853;74;21272;-81
2023/05/29 11:07:55;;;;;;;17.60;12.90;;;29.00;99.90;;;;;;1873491;76;21196;-77
2023/05/29 11:10:50;;;;;;;29.90;25.35;;;28.90;99.90;;;;;;1868215;76;21216;-80
2023/05/29 11:13:28;;;;;;;26.17;21.62;;;28.90;99.90;;;;;;1868676;74;21119;-82
2023/05/29 11:16:17;;;;;;;15.08;11.60;;;28.90;99.90;;;;;;1869875;74;21667;-77
2023/05/29 11:18:49;;;;;;;12.13;10.08;;;28.90;99.90;;;;;;1871877;74;21629;-77
2023/05/29 11:21:52;;;;;;;21.12;16.12;;;28.90;99.90;;;;;;1872226;74;21745;-78
2023/05/29 11:24:25;;;;;;;29.18;26.20;;;28.80;99.90;;;;;;1872365;76;21185;-79
2023/05/29 11:27:06;;;;;;;15.50;11.93;;;28.80;99.90;;;;;;1865165;74;21098;-78
2023/05/29 11:29:31;;;;;;;14.35;8.38;;;28.70;99.90;;;;;;1868609;74;21400;-80
2023/05/29 11:32:12;;;;;;;17.80;10.95;;;28.70;99.90;;;;;;1869611;76;21145;-76
2023/05/29 11:34:42;;;;;;;32.83;26.85;;;28.70;99.90;;;;;;1870696;74;21189;-74
2023/05/29 11:37:16;;;;;;;56.70;50.40;;;28.70;99.90;;;;;;1865954;76;21091;-78
2023/05/29 11:39:48;;;;;;;22.70;11.38;;;28.70;99.90;;;;;;1862970;76;21115;-76
2023/05/29 11:42:20;;;;;;;79.40;69.10;;;28.70;99.90;;;;;;1805283;77;21222;-76
2023/05/29 11:44:51;;;;;;;25.23;17.23;;;28.70;99.90;;;;;;1866627;74;21139;-78
2023/05/29 11:47:24;;;;;;;11.45;9.10;;;28.60;99.90;;;;;;1855864;75;21155;-76
2023/05/29 11:49:55;;;;;;;17.07;9.93;;;28.60;99.90;;;;;;1864489;74;21570;-77
2023/05/29 11:52:26;;;;;;;14.65;7.17;;;28.60;99.90;;;;;;1860872;76;21119;-75
2023/05/29 11:55:00;;;;;;;13.35;8.53;;;28.60;99.90;;;;;;1861834;76;21595;-77
2023/05/29 11:57:31;;;;;;;16.97;9.38;;;28.60;99.90;;;;;;1853884;76;21563;-78
2023/05/29 12:00:09;;;;;;;31.27;27.90;;;28.60;99.90;;;;;;1851572;76;21147;-77
2023/05/29 12:02:42;;;;;;;20.48;14.65;;;28.60;99.90;;;;;;1855262;76;21197;-78
2023/05/29 12:05:15;;;;;;;46.37;41.53;;;28.60;99.90;;;;;;1856161;76;21185;-78
2023/05/29 12:08:00;;;;;;;167.80;149.50;;;28.60;99.90;;;;;;1859047;76;21166;-79
2023/05/29 12:10:29;;;;;;;202.47;160.40;;;28.60;99.90;;;;;;1854565;74;21155;-79
2023/05/29 12:13:03;;;;;;;100.95;89.20;;;28.60;99.90;;;;;;1864327;76;21040;-76
2023/05/29 12:15:35;;;;;;;180.78;163.07;;;28.60;99.90;;;;;;1861215;74;21103;-77
2023/05/29 12:18:11;;;;;;;85.77;77.05;;;28.60;99.90;;;;;;1856278;75;21178;-81
2023/05/29 12:20:53;;;;;;;45.70;40.98;;;28.60;99.90;;;;;;1861892;74;21171;-76
2023/05/29 12:23:25;;;;;;;29.42;25.92;;;28.60;99.90;;;;;;1858974;76;21513;-77
2023/05/29 12:25:57;;;;;;;22.62;16.00;;;28.50;99.90;;;;;;1862679;76;21119;-78
2023/05/29 12:28:30;;;;;;;21.45;18.35;;;28.50;99.90;;;;;;1867306;76;21143;-76
2023/05/29 12:31:02;;;;;;;49.40;40.30;;;28.50;99.90;;;;;;1857871;76;21216;-77
2023/05/29 12:33:34;;;;;;;18.45;13.90;;;28.50;99.90;;;;;;1854429;76;21160;-77
2023/05/29 12:36:12;;;;;;;32.95;26.07;;;28.50;99.90;;;;;;1854802;76;21252;-76
2023/05/29 12:38:51;;;;;;;21.95;14.00;;;28.50;99.90;;;;;;1894405;74;21190;-78
2023/05/29 12:41:30;;;;;;;19.37;14.28;;;28.40;99.90;;;;;;1902040;75;21123;-77
2023/05/29 12:44:03;;;;;;;22.55;13.08;;;28.40;99.90;;;;;;1902504;75;21155;-77
2023/05/29 12:46:40;;;;;;;15.75;8.70;;;28.40;99.90;;;;;;1903869;75;22669;-79
2023/05/29 12:49:16;;;;;;;33.60;22.13;;;28.40;99.90;;;;;;1907035;73;21073;-78
2023/05/29 12:51:47;;;;;;;42.33;33.40;;;28.40;99.90;;;;;;1895521;73;21135;-76
2023/05/29 12:54:19;;;;;;;12.93;7.85;;;28.40;99.90;;;;;;1898939;75;21076;-77
2023/05/29 12:56:53;;;;;;;64.95;52.85;;;28.30;99.90;;;;;;1901894;75;21131;-76
2023/05/29 12:59:24;;;;;;;88.33;67.75;;;28.30;99.90;;;;;;1898608;73;21092;-77
2023/05/29 13:01:56;;;;;;;185.88;144.10;;;28.30;99.90;;;;;;1901775;73;21256;-76
2023/05/29 13:04:27;;;;;;;49.33;31.02;;;28.30;99.90;;;;;;1901176;73;21576;-77
2023/05/29 13:06:58;;;;;;;30.57;21.48;;;28.30;99.90;;;;;;1897016;75;21840;-80
2023/05/29 13:09:30;;;;;;;26.23;13.98;;;28.30;99.90;;;;;;1898733;74;21147;-82
2023/05/29 13:12:03;;;;;;;23.35;13.45;;;28.30;99.90;;;;;;1899650;75;21209;-79
2023/05/29 13:14:35;;;;;;;17.48;10.78;;;28.40;99.90;;;;;;1898511;73;21232;-79
2023/05/29 13:17:07;;;;;;;17.55;9.18;;;28.40;99.90;;;;;;1900270;73;21143;-78
2023/05/29 13:19:39;;;;;;;14.93;7.85;;;28.40;99.90;;;;;;1903434;73;21131;-81
2023/05/29 13:22:10;;;;;;;15.03;7.85;;;28.40;99.90;;;;;;1901387;75;21147;-82